sensor_id;sensor_type;location;lat;lon;timestamp;pressure;altitude;pressure_sealevel;temperature;humidity
69751;BME280;57335;52.288;6.056;2022-11-20T00:00:05;101410.78;;;-4.98;99.36
69751;BME280;57335;52.288;6.056;2022-11-20T00:02:32;101418.16;;;-4.93;99.04
69751;BME280;57335;52.288;6.056;2022-11-20T00:04:58;101427.50;;;-4.92;98.69
69751;BME280;57335;52.288;6.056;2022-11-20T00:07:24;101421.09;;;-4.99;98.50
69751;BME280;57335;52.288;6.056;2022-11-20T00:09:51;101424.28;;;-4.96;98.46
69751;BME280;57335;52.288;6.056;2022-11-20T00:12:17;101420.28;;;-5.00;98.98
69751;BME280;57335;52.288;6.056;2022-11-20T00:14:44;101417.06;;;-5.04;99.41
69751;BME280;57335;52.288;6.056;2022-11-20T00:17:11;101403.75;;;-5.09;99.71
69751;BME280;57335;52.288;6.056;2022-11-20T00:19:37;101407.06;;;-5.07;99.34
69751;BME280;57335;52.288;6.056;2022-11-20T00:22:03;101402.91;;;-5.09;98.97
69751;BME280;57335;52.288;6.056;2022-11-20T00:24:30;101397.28;;;-5.14;98.83
69751;BME280;57335;52.288;6.056;2022-11-20T00:26:56;101395.72;;;-5.17;98.42
69751;BME280;57335;52.288;6.056;2022-11-20T00:29:22;101387.69;;;-5.25;98.29
69751;BME280;57335;52.288;6.056;2022-11-20T00:31:49;101395.34;;;-5.25;98.30
69751;BME280;57335;52.288;6.056;2022-11-20T00:34:15;101390.03;;;-5.36;98.29
69751;BME280;57335;52.288;6.056;2022-11-20T00:36:41;101396.25;;;-5.26;98.26
69751;BME280;57335;52.288;6.056;2022-11-20T00:39:08;101392.31;;;-5.32;98.02
69751;BME280;57335;52.288;6.056;2022-11-20T00:41:34;101398.09;;;-5.28;98.15
69751;BME280;57335;52.288;6.056;2022-11-20T00:44:00;101395.69;;;-5.31;98.35
69751;BME280;57335;52.288;6.056;2022-11-20T00:46:27;101379.63;;;-5.33;98.17
69751;BME280;57335;52.288;6.056;2022-11-20T00:48:54;101389.03;;;-5.34;98.13
69751;BME280;57335;52.288;6.056;2022-11-20T00:51:23;101376.47;;;-5.37;97.93
69751;BME280;57335;52.288;6.056;2022-11-20T00:53:50;101389.69;;;-5.30;98.01
69751;BME280;57335;52.288;6.056;2022-11-20T00:56:18;101382.09;;;-5.32;98.11
69751;BME280;57335;52.288;6.056;2022-11-20T00:58:47;101382.53;;;-5.39;98.31
69751;BME280;57335;52.288;6.056;2022-11-20T01:01:23;101387.28;;;-5.33;99.33
69751;BME280;57335;52.288;6.056;2022-11-20T01:03:51;101393.31;;;-5.34;99.65
69751;BME280;57335;52.288;6.056;2022-11-20T01:06:20;101395.81;;;-5.33;99.85
69751;BME280;57335;52.288;6.056;2022-11-20T01:08:48;101379.44;;;-5.45;99.72
69751;BME280;57335;52.288;6.056;2022-11-20T01:11:17;101400.91;;;-5.33;99.72
69751;BME280;57335;52.288;6.056;2022-11-20T01:13:45;101399.34;;;-5.35;99.71
69751;BME280;57335;52.288;6.056;2022-11-20T01:16:23;101397.72;;;-5.36;100.00
69751;BME280;57335;52.288;6.056;2022-11-20T01:18:52;101405.38;;;-5.36;100.00
69751;BME280;57335;52.288;6.056;2022-11-20T01:21:33;101394.34;;;-5.37;100.00
69751;BME280;57335;52.288;6.056;2022-11-20T01:24:01;101389.41;;;-5.40;100.00
69751;BME280;57335;52.288;6.056;2022-11-20T01:26:30;101376.25;;;-5.48;100.00
69751;BME280;57335;52.288;6.056;2022-11-20T01:28:58;101381.72;;;-5.40;100.00
69751;BME280;57335;52.288;6.056;2022-11-20T01:31:36;101391.06;;;-5.39;100.00
69751;BME280;57335;52.288;6.056;2022-11-20T01:34:12;101379.38;;;-5.43;100.00
69751;BME280;57335;52.288;6.056;2022-11-20T01:36:40;101375.97;;;-5.44;99.53
69751;BME280;57335;52.288;6.056;2022-11-20T01:39:16;101373.53;;;-5.45;99.92
69751;BME280;57335;52.288;6.056;2022-11-20T01:41:43;101361.44;;;-5.57;99.44
69751;BME280;57335;52.288;6.056;2022-11-20T01:44:12;101371.31;;;-5.51;99.26
69751;BME280;57335;52.288;6.056;2022-11-20T01:46:40;101370.69;;;-5.55;99.06
69751;BME280;57335;52.288;6.056;2022-11-20T01:49:18;101363.25;;;-5.59;98.98
69751;BME280;57335;52.288;6.056;2022-11-20T01:51:53;101372.66;;;-5.60;99.00
69751;BME280;57335;52.288;6.056;2022-11-20T01:54:28;101372.66;;;-5.60;99.00
69751;BME280;57335;52.288;6.056;2022-11-20T01:56:57;101374.47;;;-5.62;98.82
69751;BME280;57335;52.288;6.056;2022-11-20T01:59:26;101367.00;;;-5.65;99.15
69751;BME280;57335;52.288;6.056;2022-11-20T02:01:54;101353.69;;;-5.70;99.51
69751;BME280;57335;52.288;6.056;2022-11-20T02:04:22;101352.13;;;-5.73;99.05
69751;BME280;57335;52.288;6.056;2022-11-20T02:06:53;101361.19;;;-5.67;98.65
69751;BME280;57335;52.288;6.056;2022-11-20T02:09:21;101347.84;;;-5.72;98.47
69751;BME280;57335;52.288;6.056;2022-11-20T02:11:49;101340.53;;;-5.78;98.70
69751;BME280;57335;52.288;6.056;2022-11-20T02:14:15;101337.41;;;-5.84;98.72
69751;BME280;57335;52.288;6.056;2022-11-20T02:16:45;101353.28;;;-5.78;98.95
69751;BME280;57335;52.288;6.056;2022-11-20T02:19:22;101349.19;;;-5.81;99.18
69751;BME280;57335;52.288;6.056;2022-11-20T02:22:10;101354.19;;;-5.79;99.22
69751;BME280;57335;52.288;6.056;2022-11-20T02:24:39;101334.22;;;-5.87;99.15
69751;BME280;57335;52.288;6.056;2022-11-20T02:27:10;101342.34;;;-5.81;98.74
69751;BME280;57335;52.288;6.056;2022-11-20T02:29:47;101331.69;;;-5.87;98.75
69751;BME280;57335;52.288;6.056;2022-11-20T02:32:25;101331.75;;;-5.89;98.35
69751;BME280;57335;52.288;6.056;2022-11-20T02:34:51;101321.94;;;-5.95;98.25
69751;BME280;57335;52.288;6.056;2022-11-20T02:37:19;101337.75;;;-5.90;98.32
69751;BME280;57335;52.288;6.056;2022-11-20T02:39:47;101332.84;;;-5.93;98.77
69751;BME280;57335;52.288;6.056;2022-11-20T02:42:15;101333.03;;;-5.96;99.09
69751;BME280;57335;52.288;6.056;2022-11-20T02:44:41;101330.47;;;-5.96;100.00
69751;BME280;57335;52.288;6.056;2022-11-20T02:47:08;101332.56;;;-5.88;100.00
69751;BME280;57335;52.288;6.056;2022-11-20T02:49:34;101320.34;;;-5.97;100.00
69751;BME280;57335;52.288;6.056;2022-11-20T02:52:01;101335.69;;;-5.83;100.00
69751;BME280;57335;52.288;6.056;2022-11-20T02:54:27;101333.78;;;-5.79;100.00
69751;BME280;57335;52.288;6.056;2022-11-20T02:56:53;101328.03;;;-5.83;100.00
69751;BME280;57335;52.288;6.056;2022-11-20T02:59:20;101331.22;;;-5.79;100.00
69751;BME280;57335;52.288;6.056;2022-11-20T03:01:46;101333.16;;;-5.83;100.00
69751;BME280;57335;52.288;6.056;2022-11-20T03:04:13;101325.19;;;-5.93;99.80
69751;BME280;57335;52.288;6.056;2022-11-20T03:06:39;101318.53;;;-5.95;99.45
69751;BME280;57335;52.288;6.056;2022-11-20T03:09:06;101316.19;;;-5.98;99.71
69751;BME280;57335;52.288;6.056;2022-11-20T03:11:32;101313.53;;;-5.97;99.69
69751;BME280;57335;52.288;6.056;2022-11-20T03:14:02;101311.88;;;-5.98;99.32
69751;BME280;57335;52.288;6.056;2022-11-20T03:16:30;101308.59;;;-6.00;99.07
69751;BME280;57335;52.288;6.056;2022-11-20T03:18:56;101317.06;;;-5.99;98.79
69751;BME280;57335;52.288;6.056;2022-11-20T03:21:23;101308.59;;;-6.00;98.97
69751;BME280;57335;52.288;6.056;2022-11-20T03:23:49;101305.31;;;-6.02;98.67
69751;BME280;57335;52.288;6.056;2022-11-20T03:26:16;101310.41;;;-6.02;98.88
69751;BME280;57335;52.288;6.056;2022-11-20T03:28:54;101305.50;;;-6.05;99.15
69751;BME280;57335;52.288;6.056;2022-11-20T03:31:23;101302.22;;;-6.07;99.47
69751;BME280;57335;52.288;6.056;2022-11-20T03:33:50;101290.34;;;-6.08;100.00
69751;BME280;57335;52.288;6.056;2022-11-20T03:36:18;101291.81;;;-6.04;99.92
69751;BME280;57335;52.288;6.056;2022-11-20T03:38:46;101297.59;;;-6.00;99.64
69751;BME280;57335;52.288;6.056;2022-11-20T03:41:14;101293.56;;;-6.05;99.55
69751;BME280;57335;52.288;6.056;2022-11-20T03:43:41;101293.63;;;-6.06;99.26
69751;BME280;57335;52.288;6.056;2022-11-20T03:46:08;101276.94;;;-6.12;99.17
69751;BME280;57335;52.288;6.056;2022-11-20T03:48:34;101288.63;;;-6.08;99.00
69751;BME280;57335;52.288;6.056;2022-11-20T03:51:17;101293.72;;;-6.08;99.09
69751;BME280;57335;52.288;6.056;2022-11-20T03:53:46;101285.25;;;-6.08;99.11
69751;BME280;57335;52.288;6.056;2022-11-20T03:56:14;101290.72;;;-6.14;99.12
69751;BME280;57335;52.288;6.056;2022-11-20T03:58:41;101292.34;;;-6.13;99.56
69751;BME280;57335;52.288;6.056;2022-11-20T04:01:09;101303.38;;;-6.13;99.44
69751;BME280;57335;52.288;6.056;2022-11-20T04:03:37;101297.63;;;-6.16;99.16
69751;BME280;57335;52.288;6.056;2022-11-20T04:06:09;101290.97;;;-6.19;98.67
69751;BME280;57335;52.288;6.056;2022-11-20T04:08:36;101280.53;;;-6.30;98.68
69751;BME280;57335;52.288;6.056;2022-11-20T04:11:12;101295.41;;;-6.23;98.92
69751;BME280;57335;52.288;6.056;2022-11-20T04:13:39;101288.66;;;-6.24;98.88
69751;BME280;57335;52.288;6.056;2022-11-20T04:16:07;101283.66;;;-6.25;98.70
69751;BME280;57335;52.288;6.056;2022-11-20T04:18:34;101266.25;;;-6.33;98.46
69751;BME280;57335;52.288;6.056;2022-11-20T04:21:01;101268.06;;;-6.35;98.55
69751;BME280;57335;52.288;6.056;2022-11-20T04:23:28;101270.59;;;-6.35;98.67
69751;BME280;57335;52.288;6.056;2022-11-20T04:25:54;101275.44;;;-6.30;98.98
69751;BME280;57335;52.288;6.056;2022-11-20T04:28:21;101273.97;;;-6.34;99.19
69751;BME280;57335;52.288;6.056;2022-11-20T04:30:47;101266.47;;;-6.37;100.00
69751;BME280;57335;52.288;6.056;2022-11-20T04:33:13;101262.31;;;-6.38;100.00
69751;BME280;57335;52.288;6.056;2022-11-20T04:35:40;101258.81;;;-6.37;100.00
69751;BME280;57335;52.288;6.056;2022-11-20T04:38:06;101258.75;;;-6.36;99.86
69751;BME280;57335;52.288;6.056;2022-11-20T04:40:33;101267.88;;;-6.32;99.72
69751;BME280;57335;52.288;6.056;2022-11-20T04:42:59;101256.38;;;-6.39;99.88
69751;BME280;57335;52.288;6.056;2022-11-20T04:45:25;101251.28;;;-6.39;100.00
69751;BME280;57335;52.288;6.056;2022-11-20T04:47:52;101262.94;;;-6.35;100.00
69751;BME280;57335;52.288;6.056;2022-11-20T04:50:18;101258.66;;;-6.34;100.00
69751;BME280;57335;52.288;6.056;2022-11-20T04:52:45;101255.84;;;-6.30;100.00
69751;BME280;57335;52.288;6.056;2022-11-20T04:55:11;101257.50;;;-6.29;99.87
69751;BME280;57335;52.288;6.056;2022-11-20T04:57:37;101260.13;;;-6.30;99.40
69751;BME280;57335;52.288;6.056;2022-11-20T05:00:04;101260.94;;;-6.30;99.19
69751;BME280;57335;52.288;6.056;2022-11-20T05:02:31;101254.22;;;-6.31;98.99
69751;BME280;57335;52.288;6.056;2022-11-20T05:04:57;101248.00;;;-6.41;99.39
69751;BME280;57335;52.288;6.056;2022-11-20T05:07:23;101249.81;;;-6.43;100.00
69751;BME280;57335;52.288;6.056;2022-11-20T05:09:50;101268.88;;;-6.34;100.00
69751;BME280;57335;52.288;6.056;2022-11-20T05:12:16;101258.75;;;-6.36;100.00
69751;BME280;57335;52.288;6.056;2022-11-20T05:14:43;101251.44;;;-6.42;100.00
69751;BME280;57335;52.288;6.056;2022-11-20T05:17:10;101267.78;;;-6.30;100.00
69751;BME280;57335;52.288;6.056;2022-11-20T05:19:37;101259.47;;;-6.34;100.00
69751;BME280;57335;52.288;6.056;2022-11-20T05:22:04;101267.72;;;-6.29;100.00
69751;BME280;57335;52.288;6.056;2022-11-20T05:24:30;101266.06;;;-6.30;100.00
69751;BME280;57335;52.288;6.056;2022-11-20T05:26:57;101257.19;;;-6.38;100.00
69751;BME280;57335;52.288;6.056;2022-11-20T05:29:23;101257.13;;;-6.37;100.00
69751;BME280;57335;52.288;6.056;2022-11-20T05:31:49;101256.19;;;-6.36;100.00
69751;BME280;57335;52.288;6.056;2022-11-20T05:34:15;101257.66;;;-6.32;100.00
69751;BME280;57335;52.288;6.056;2022-11-20T05:36:42;101249.28;;;-6.34;100.00
69751;BME280;57335;52.288;6.056;2022-11-20T05:39:08;101261.78;;;-6.29;100.00
69751;BME280;57335;52.288;6.056;2022-11-20T05:41:34;101255.13;;;-6.32;100.00
69751;BME280;57335;52.288;6.056;2022-11-20T05:44:01;101242.72;;;-6.38;99.77
69751;BME280;57335;52.288;6.056;2022-11-20T05:46:27;101232.84;;;-6.44;99.67
69751;BME280;57335;52.288;6.056;2022-11-20T05:48:55;101237.06;;;-6.43;99.61
69751;BME280;57335;52.288;6.056;2022-11-20T05:51:22;101234.66;;;-6.46;99.87
69751;BME280;57335;52.288;6.056;2022-11-20T05:53:49;101232.94;;;-6.46;100.00
69751;BME280;57335;52.288;6.056;2022-11-20T05:56:17;101239.28;;;-6.37;99.83
69751;BME280;57335;52.288;6.056;2022-11-20T05:58:45;101223.00;;;-6.50;99.72
69751;BME280;57335;52.288;6.056;2022-11-20T06:01:17;101241.25;;;-6.42;99.72
69751;BME280;57335;52.288;6.056;2022-11-20T06:03:44;101233.88;;;-6.47;100.00
69751;BME280;57335;52.288;6.056;2022-11-20T06:06:11;101221.28;;;-6.50;100.00
69751;BME280;57335;52.288;6.056;2022-11-20T06:08:38;101236.22;;;-6.44;99.98
69751;BME280;57335;52.288;6.056;2022-11-20T06:11:09;101222.94;;;-6.49;99.65
69751;BME280;57335;52.288;6.056;2022-11-20T06:13:36;101236.16;;;-6.42;99.45
69751;BME280;57335;52.288;6.056;2022-11-20T06:16:07;101226.72;;;-6.56;99.31
69751;BME280;57335;52.288;6.056;2022-11-20T06:18:34;101247.44;;;-6.46;99.54
69751;BME280;57335;52.288;6.056;2022-11-20T06:21:02;101246.59;;;-6.47;99.48
69751;BME280;57335;52.288;6.056;2022-11-20T06:23:30;101235.03;;;-6.52;98.96
69751;BME280;57335;52.288;6.056;2022-11-20T06:26:00;101234.19;;;-6.53;98.62
69751;BME280;57335;52.288;6.056;2022-11-20T06:28:27;101225.44;;;-6.63;98.69
69751;BME280;57335;52.288;6.056;2022-11-20T06:30:53;101242.53;;;-6.65;98.82
69751;BME280;57335;52.288;6.056;2022-11-20T06:33:19;101240.63;;;-6.62;98.99
69751;BME280;57335;52.288;6.056;2022-11-20T06:35:46;101248.19;;;-6.60;99.44
69751;BME280;57335;52.288;6.056;2022-11-20T06:38:12;101253.22;;;-6.58;99.79
69751;BME280;57335;52.288;6.056;2022-11-20T06:40:42;101236.53;;;-6.64;100.00
69751;BME280;57335;52.288;6.056;2022-11-20T06:43:09;101260.13;;;-6.60;100.00
69751;BME280;57335;52.288;6.056;2022-11-20T06:45:36;101255.03;;;-6.60;99.72
69751;BME280;57335;52.288;6.056;2022-11-20T06:48:03;101258.72;;;-6.66;99.76
69751;BME280;57335;52.288;6.056;2022-11-20T06:50:29;101266.03;;;-6.60;99.94
69751;BME280;57335;52.288;6.056;2022-11-20T06:52:55;101269.38;;;-6.59;100.00
69751;BME280;57335;52.288;6.056;2022-11-20T06:55:22;101253.47;;;-6.63;100.00
69751;BME280;57335;52.288;6.056;2022-11-20T06:57:48;101247.53;;;-6.64;99.68
69751;BME280;57335;52.288;6.056;2022-11-20T07:00:21;101250.81;;;-6.62;99.36
69751;BME280;57335;52.288;6.056;2022-11-20T07:02:47;101236.84;;;-6.70;99.12
69751;BME280;57335;52.288;6.056;2022-11-20T07:05:13;101247.72;;;-6.67;99.29
69751;BME280;57335;52.288;6.056;2022-11-20T07:07:40;101249.19;;;-6.63;99.33
69751;BME280;57335;52.288;6.056;2022-11-20T07:10:07;101253.28;;;-6.60;99.19
69751;BME280;57335;52.288;6.056;2022-11-20T07:12:33;101240.63;;;-6.62;99.08
69751;BME280;57335;52.288;6.056;2022-11-20T07:14:59;101251.31;;;-6.55;98.82
69751;BME280;57335;52.288;6.056;2022-11-20T07:17:26;101263.13;;;-6.54;98.86
69751;BME280;57335;52.288;6.056;2022-11-20T07:19:52;101249.91;;;-6.60;99.09
69751;BME280;57335;52.288;6.056;2022-11-20T07:22:18;101254.03;;;-6.58;99.04
69751;BME280;57335;52.288;6.056;2022-11-20T07:24:45;101246.03;;;-6.52;99.05
69751;BME280;57335;52.288;6.056;2022-11-20T07:27:11;101250.97;;;-6.49;99.17
69751;BME280;57335;52.288;6.056;2022-11-20T07:29:37;101254.72;;;-6.40;99.96
69751;BME280;57335;52.288;6.056;2022-11-20T07:32:04;101236.88;;;-6.40;99.88
69751;BME280;57335;52.288;6.056;2022-11-20T07:34:30;101244.19;;;-6.34;100.00
69751;BME280;57335;52.288;6.056;2022-11-20T07:36:56;101231.44;;;-6.34;100.00
69751;BME280;57335;52.288;6.056;2022-11-20T07:39:23;101242.00;;;-6.26;100.00
69751;BME280;57335;52.288;6.056;2022-11-20T07:41:49;101230.72;;;-6.22;100.00
69751;BME280;57335;52.288;6.056;2022-11-20T07:44:15;101223.72;;;-6.18;100.00
69751;BME280;57335;52.288;6.056;2022-11-20T07:46:42;101220.66;;;-6.09;100.00
69751;BME280;57335;52.288;6.056;2022-11-20T07:49:08;101220.09;;;-5.99;100.00
69751;BME280;57335;52.288;6.056;2022-11-20T07:51:34;101219.56;;;-5.90;100.00
69751;BME280;57335;52.288;6.056;2022-11-20T07:54:01;101220.47;;;-5.77;100.00
69751;BME280;57335;52.288;6.056;2022-11-20T07:56:27;101213.09;;;-5.67;100.00
69751;BME280;57335;52.288;6.056;2022-11-20T07:58:54;101204.50;;;-5.66;100.00
69751;BME280;57335;52.288;6.056;2022-11-20T08:01:20;101201.31;;;-5.55;100.00
69751;BME280;57335;52.288;6.056;2022-11-20T08:03:46;101213.97;;;-5.39;100.00
69751;BME280;57335;52.288;6.056;2022-11-20T08:06:13;101225.19;;;-5.28;100.00
69751;BME280;57335;52.288;6.056;2022-11-20T08:08:39;101224.41;;;-5.15;100.00
69751;BME280;57335;52.288;6.056;2022-11-20T08:11:08;101209.53;;;-5.09;100.00
69751;BME280;57335;52.288;6.056;2022-11-20T08:13:34;101211.66;;;-4.88;100.00
69751;BME280;57335;52.288;6.056;2022-11-20T08:16:00;101215.81;;;-4.73;100.00
69751;BME280;57335;52.288;6.056;2022-11-20T08:18:27;101200.81;;;-4.65;100.00
69751;BME280;57335;52.288;6.056;2022-11-20T08:20:57;101208.31;;;-4.49;100.00
69751;BME280;57335;52.288;6.056;2022-11-20T08:23:23;101217.34;;;-4.30;100.00
69751;BME280;57335;52.288;6.056;2022-11-20T08:25:50;101214.06;;;-4.19;100.00
69751;BME280;57335;52.288;6.056;2022-11-20T08:28:16;101216.13;;;-4.12;100.00
69751;BME280;57335;52.288;6.056;2022-11-20T08:30:47;101196.28;;;-4.08;100.00
69751;BME280;57335;52.288;6.056;2022-11-20T08:33:13;101209.16;;;-3.97;100.00
69751;BME280;57335;52.288;6.056;2022-11-20T08:35:40;101188.91;;;-4.00;100.00
69751;BME280;57335;52.288;6.056;2022-11-20T08:38:06;101194.44;;;-3.93;100.00
69751;BME280;57335;52.288;6.056;2022-11-20T08:40:33;101194.00;;;-3.87;100.00
69751;BME280;57335;52.288;6.056;2022-11-20T08:42:59;101204.97;;;-3.72;100.00
69751;BME280;57335;52.288;6.056;2022-11-20T08:45:26;101203.44;;;-3.62;100.00
69751;BME280;57335;52.288;6.056;2022-11-20T08:48:02;101218.97;;;-3.39;100.00
69751;BME280;57335;52.288;6.056;2022-11-20T08:50:30;101206.84;;;-3.25;100.00
69751;BME280;57335;52.288;6.056;2022-11-20T08:53:04;101193.47;;;-3.17;100.00
69751;BME280;57335;52.288;6.056;2022-11-20T08:55:31;101190.63;;;-3.01;100.00
69751;BME280;57335;52.288;6.056;2022-11-20T08:57:58;101177.19;;;-2.92;99.56
69751;BME280;57335;52.288;6.056;2022-11-20T09:00:24;101190.44;;;-2.74;99.38
69751;BME280;57335;52.288;6.056;2022-11-20T09:02:51;101184.84;;;-2.68;99.13
69751;BME280;57335;52.288;6.056;2022-11-20T09:05:17;101170.16;;;-2.66;98.78
69751;BME280;57335;52.288;6.056;2022-11-20T09:07:43;101175.34;;;-2.54;98.53
69751;BME280;57335;52.288;6.056;2022-11-20T09:10:10;101162.06;;;-2.48;98.75
69751;BME280;57335;52.288;6.056;2022-11-20T09:12:49;101178.16;;;-2.35;98.99
69751;BME280;57335;52.288;6.056;2022-11-20T09:15:16;101189.28;;;-2.23;98.84
69751;BME280;57335;52.288;6.056;2022-11-20T09:17:42;101180.91;;;-2.14;98.81
69751;BME280;57335;52.288;6.056;2022-11-20T09:20:16;101168.66;;;-2.10;98.45
69751;BME280;57335;52.288;6.056;2022-11-20T09:22:42;101168.19;;;-2.04;97.84
69751;BME280;57335;52.288;6.056;2022-11-20T09:25:08;101169.84;;;-1.92;97.81
69751;BME280;57335;52.288;6.056;2022-11-20T09:27:35;101151.97;;;-1.93;97.69
69751;BME280;57335;52.288;6.056;2022-11-20T09:30:02;101172.38;;;-1.69;97.58
69751;BME280;57335;52.288;6.056;2022-11-20T09:32:28;101171.22;;;-1.54;96.77
69751;BME280;57335;52.288;6.056;2022-11-20T09:34:55;101163.00;;;-1.36;95.64
69751;BME280;57335;52.288;6.056;2022-11-20T09:37:21;101163.09;;;-1.27;94.30
69751;BME280;57335;52.288;6.056;2022-11-20T09:39:47;101170.31;;;-1.21;94.26
69751;BME280;57335;52.288;6.056;2022-11-20T09:42:48;101155.97;;;-1.23;93.50
69751;BME280;57335;52.288;6.056;2022-11-20T09:45:44;101161.31;;;-1.15;94.10
69751;BME280;57335;52.288;6.056;2022-11-20T09:48:24;101140.53;;;-1.23;93.17
69751;BME280;57335;52.288;6.056;2022-11-20T09:53:58;101153.22;;;-1.10;94.35
69751;BME280;57335;52.288;6.056;2022-11-20T09:56:28;101140.72;;;-1.15;94.18
69751;BME280;57335;52.288;6.056;2022-11-20T09:58:57;101133.47;;;-1.10;94.41
69751;BME280;57335;52.288;6.056;2022-11-20T10:01:31;101124.22;;;-1.12;94.13
69751;BME280;57335;52.288;6.056;2022-11-20T10:04:03;101140.00;;;-1.06;93.88
69751;BME280;57335;52.288;6.056;2022-11-20T10:06:37;101134.88;;;-1.06;94.31
69751;BME280;57335;52.288;6.056;2022-11-20T10:20:14;101111.81;;;-0.75;94.83
69751;BME280;57335;52.288;6.056;2022-11-20T10:22:54;101124.63;;;-0.64;95.03
69751;BME280;57335;52.288;6.056;2022-11-20T10:31:10;101098.66;;;-0.51;93.34
69751;BME280;57335;52.288;6.056;2022-11-20T10:33:43;101102.78;;;-0.38;93.17
69751;BME280;57335;52.288;6.056;2022-11-20T10:36:39;101091.69;;;-0.39;94.24
69751;BME280;57335;52.288;6.056;2022-11-20T10:39:17;101112.50;;;-0.21;93.65
69751;BME280;57335;52.288;6.056;2022-11-20T10:41:50;101111.31;;;-0.17;92.84
69751;BME280;57335;52.288;6.056;2022-11-20T10:44:20;101110.16;;;-0.03;93.13
69751;BME280;57335;52.288;6.056;2022-11-20T10:49:33;101107.38;;;0.19;92.74
69751;BME280;57335;52.288;6.056;2022-11-20T10:52:24;101095.47;;;0.28;93.20
69751;BME280;57335;52.288;6.056;2022-11-20T10:58:00;101110.16;;;0.57;92.10
69751;BME280;57335;52.288;6.056;2022-11-20T11:00:33;101104.34;;;0.65;92.55
69751;BME280;57335;52.288;6.056;2022-11-20T11:02:59;101107.44;;;0.78;91.47
69751;BME280;57335;52.288;6.056;2022-11-20T11:05:50;101103.28;;;0.96;92.54
69751;BME280;57335;52.288;6.056;2022-11-20T11:08:20;101081.66;;;1.07;91.37
69751;BME280;57335;52.288;6.056;2022-11-20T11:10:57;101081.09;;;1.23;90.80
69751;BME280;57335;52.288;6.056;2022-11-20T11:13:27;101074.56;;;1.29;90.47
69751;BME280;57335;52.288;6.056;2022-11-20T11:15:54;101072.22;;;1.35;90.89
69751;BME280;57335;52.288;6.056;2022-11-20T11:18:31;101075.41;;;1.67;92.81
69751;BME280;57335;52.288;6.056;2022-11-20T11:21:03;101064.38;;;1.92;91.47
69751;BME280;57335;52.288;6.056;2022-11-20T11:23:38;101055.16;;;2.17;90.46
69751;BME280;57335;52.288;6.056;2022-11-20T11:26:27;101050.00;;;2.35;89.38
69751;BME280;57335;52.288;6.056;2022-11-20T11:29:00;101044.38;;;2.40;89.14
69751;BME280;57335;52.288;6.056;2022-11-20T11:31:36;101030.25;;;2.34;86.92
69751;BME280;57335;52.288;6.056;2022-11-20T11:34:04;101025.91;;;2.35;87.10
69751;BME280;57335;52.288;6.056;2022-11-20T11:36:32;101027.75;;;2.25;89.03
69751;BME280;57335;52.288;6.056;2022-11-20T11:39:00;101029.56;;;2.14;90.06
69751;BME280;57335;52.288;6.056;2022-11-20T11:41:32;101024.13;;;2.17;91.26
69751;BME280;57335;52.288;6.056;2022-11-20T11:44:23;101035.88;;;2.30;90.98
69751;BME280;57335;52.288;6.056;2022-11-20T11:46:55;101014.91;;;2.33;91.53
69751;BME280;57335;52.288;6.056;2022-11-20T11:49:23;101019.69;;;2.46;91.44
69751;BME280;57335;52.288;6.056;2022-11-20T11:52:10;101018.31;;;2.51;92.14
69751;BME280;57335;52.288;6.056;2022-11-20T11:55:04;101016.06;;;2.56;92.44
69751;BME280;57335;52.288;6.056;2022-11-20T12:00:13;101008.47;;;2.73;92.20
69751;BME280;57335;52.288;6.056;2022-11-20T12:06:24;101000.53;;;2.74;90.55
69751;BME280;57335;52.288;6.056;2022-11-20T12:08:30;100994.75;;;2.80;91.56
69751;BME280;57335;52.288;6.056;2022-11-20T12:11:31;100989.06;;;2.77;90.30
69751;BME280;57335;52.288;6.056;2022-11-20T12:14:14;100990.69;;;2.78;92.29
69751;BME280;57335;52.288;6.056;2022-11-20T12:16:43;100984.50;;;2.71;92.06
69751;BME280;57335;52.288;6.056;2022-11-20T12:19:12;100982.34;;;2.66;91.42
69751;BME280;57335;52.288;6.056;2022-11-20T12:21:50;100954.81;;;2.57;91.36
69751;BME280;57335;52.288;6.056;2022-11-20T12:24:45;100941.59;;;2.42;90.89
69751;BME280;57335;52.288;6.056;2022-11-20T12:27:36;100942.78;;;2.30;90.70
69751;BME280;57335;52.288;6.056;2022-11-20T12:30:16;100941.59;;;2.24;91.56
69751;BME280;57335;52.288;6.056;2022-11-20T12:38:51;100932.66;;;2.18;93.33
69751;BME280;57335;52.288;6.056;2022-11-20T12:41:55;100932.75;;;2.09;92.53
69751;BME280;57335;52.288;6.056;2022-11-20T12:50:51;100911.84;;;1.84;93.01
69751;BME280;57335;52.288;6.056;2022-11-20T13:00:06;100890.41;;;1.74;94.35
69751;BME280;57335;52.288;6.056;2022-11-20T13:05:21;100900.25;;;1.88;93.77
69751;BME280;57335;52.288;6.056;2022-11-20T13:07:53;100888.56;;;1.84;94.19
69751;BME280;57335;52.288;6.056;2022-11-20T13:16:04;100885.19;;;2.02;94.62
69751;BME280;57335;52.288;6.056;2022-11-20T13:18:38;100885.09;;;2.11;94.11
69751;BME280;57335;52.288;6.056;2022-11-20T13:21:20;100874.91;;;2.10;93.62
69751;BME280;57335;52.288;6.056;2022-11-20T13:23:47;100874.44;;;2.14;93.28
69751;BME280;57335;52.288;6.056;2022-11-20T13:26:19;100869.81;;;2.18;93.11
69751;BME280;57335;52.288;6.056;2022-11-20T13:28:47;100858.94;;;2.14;94.26
69751;BME280;57335;52.288;6.056;2022-11-20T13:31:33;100855.22;;;2.09;94.11
69751;BME280;57335;52.288;6.056;2022-11-20T13:34:03;100837.72;;;2.03;94.09
69751;BME280;57335;52.288;6.056;2022-11-20T13:36:31;100842.72;;;2.04;93.96
69751;BME280;57335;52.288;6.056;2022-11-20T13:38:58;100840.13;;;2.04;94.12
69751;BME280;57335;52.288;6.056;2022-11-20T13:41:30;100832.53;;;2.03;94.65
69751;BME280;57335;52.288;6.056;2022-11-20T13:44:36;100844.03;;;2.08;93.69
69751;BME280;57335;52.288;6.056;2022-11-20T13:47:04;100828.38;;;2.10;93.58
69751;BME280;57335;52.288;6.056;2022-11-20T13:49:46;100815.91;;;2.05;93.99
69751;BME280;57335;52.288;6.056;2022-11-20T13:55:17;100819.44;;;2.04;94.50
69751;BME280;57335;52.288;6.056;2022-11-20T14:00:24;100803.94;;;2.04;94.37
69751;BME280;57335;52.288;6.056;2022-11-20T14:05:36;100780.72;;;1.86;94.23
69751;BME280;57335;52.288;6.056;2022-11-20T14:08:06;100776.81;;;1.82;94.04
69751;BME280;57335;52.288;6.056;2022-11-20T14:10:33;100765.00;;;1.79;93.64